createdAt,value
2022-11-24T00:00:52.222Z,83.10
2022-11-24T00:03:18.980Z,83.76
2022-11-24T00:05:45.730Z,82.64
2022-11-24T00:08:12.294Z,83.41
2022-11-24T00:10:38.659Z,83.08
2022-11-24T00:13:05.013Z,82.93
2022-11-24T00:15:31.355Z,82.35
2022-11-24T00:17:57.789Z,82.71
2022-11-24T00:20:24.140Z,82.91
2022-11-24T00:22:50.535Z,82.51
2022-11-24T00:25:16.979Z,82.79
2022-11-24T00:27:43.342Z,82.18
2022-11-24T00:30:10.047Z,81.96
2022-11-24T00:32:36.420Z,81.48
2022-11-24T00:35:02.828Z,81.58
2022-11-24T00:37:29.232Z,81.57
2022-11-24T00:39:55.568Z,81.75
2022-11-24T00:42:21.936Z,81.86
2022-11-24T00:44:48.329Z,81.62
2022-11-24T00:47:14.831Z,82.52
2022-11-24T00:49:41.238Z,82.08
2022-11-24T00:52:07.594Z,81.90
2022-11-24T00:54:34.314Z,81.43
2022-11-24T00:57:01.047Z,81.94
2022-11-24T00:59:27.448Z,81.42
2022-11-24T01:01:53.855Z,81.94
2022-11-24T01:04:20.345Z,81.89
2022-11-24T01:06:46.715Z,81.96
2022-11-24T01:09:13.108Z,81.76
2022-11-24T01:11:57.853Z,82.52
2022-11-24T01:14:25.374Z,82.50
2022-11-24T01:16:52.615Z,82.87
2022-11-24T01:19:19.795Z,82.78
2022-11-24T01:21:47.123Z,82.70
2022-11-24T01:24:14.022Z,83.19
2022-11-24T01:26:40.411Z,83.24
2022-11-24T01:29:06.749Z,83.57
2022-11-24T01:31:33.100Z,83.30
2022-11-24T01:33:59.505Z,83.01
2022-11-24T01:36:25.874Z,82.52
2022-11-24T01:38:52.256Z,82.55
2022-11-24T01:41:21.815Z,82.34
2022-11-24T01:43:49.516Z,82.02
2022-11-24T01:46:24.144Z,82.20
2022-11-24T01:49:08.657Z,81.88
2022-11-24T01:51:40.005Z,82.38
2022-11-24T01:54:15.943Z,83.05
2022-11-24T01:56:47.568Z,82.38
2022-11-24T01:59:17.130Z,82.27
2022-11-24T02:01:43.905Z,82.73
2022-11-24T02:04:14.953Z,82.89
2022-11-24T02:06:43.673Z,83.05
2022-11-24T02:09:13.625Z,82.22
2022-11-24T02:11:41.447Z,82.31
2022-11-24T02:14:11.731Z,82.60
2022-11-24T02:16:40.862Z,82.81
2022-11-24T02:19:18.060Z,82.24
2022-11-24T02:21:44.400Z,82.70
2022-11-24T02:24:40.439Z,82.41
2022-11-24T02:27:07.237Z,82.54
2022-11-24T02:29:33.793Z,82.27
2022-11-24T02:32:04.671Z,82.01
2022-11-24T02:34:31.295Z,81.70
2022-11-24T02:36:57.834Z,81.90
2022-11-24T02:39:24.268Z,82.73
2022-11-24T02:41:57.969Z,81.45
2022-11-24T02:44:30.415Z,82.16
2022-11-24T02:47:05.968Z,81.70
2022-11-24T02:49:32.368Z,81.64
2022-11-24T02:51:59.106Z,81.61
2022-11-24T02:54:25.508Z,81.52
2022-11-24T02:56:52.364Z,81.69
2022-11-24T02:59:19.222Z,81.95
2022-11-24T03:01:45.762Z,81.62
2022-11-24T03:04:12.715Z,81.45
2022-11-24T03:06:39.239Z,81.47
2022-11-24T03:09:05.886Z,81.54
2022-11-24T03:11:32.673Z,81.87
2022-11-24T03:13:59.024Z,81.63
2022-11-24T03:16:25.483Z,81.80
2022-11-24T03:18:53.034Z,81.63
2022-11-24T03:21:19.575Z,81.69
2022-11-24T03:23:45.965Z,81.72
2022-11-24T03:26:15.675Z,81.59
2022-11-24T03:28:42.155Z,81.14
2022-11-24T03:31:09.289Z,80.81
2022-11-24T03:33:36.310Z,81.15
2022-11-24T03:36:04.254Z,81.01
2022-11-24T03:38:30.635Z,80.97
2022-11-24T03:40:57.020Z,80.78
2022-11-24T03:43:23.371Z,80.96
2022-11-24T03:45:50.137Z,80.33
2022-11-24T03:48:17.681Z,80.91
2022-11-24T03:50:52.049Z,80.71
2022-11-24T03:53:18.411Z,80.29
2022-11-24T03:55:44.786Z,80.98
2022-11-24T03:58:11.233Z,81.11
2022-11-24T04:00:37.622Z,80.48
2022-11-24T04:03:04.048Z,80.54
2022-11-24T04:05:30.439Z,81.40
2022-11-24T04:07:57.560Z,80.97
2022-11-24T04:10:24.889Z,80.97
2022-11-24T04:12:51.243Z,81.04
2022-11-24T04:15:19.302Z,81.19
2022-11-24T04:17:47.084Z,81.09
2022-11-24T04:20:14.892Z,81.28
2022-11-24T04:22:42.050Z,81.04
2022-11-24T04:25:10.088Z,80.81
2022-11-24T04:27:37.194Z,81.04
2022-11-24T04:30:05.685Z,81.40
2022-11-24T04:32:32.136Z,80.45
2022-11-24T04:34:58.510Z,80.29
2022-11-24T04:37:24.893Z,80.45
2022-11-24T04:39:51.274Z,80.62
2022-11-24T04:42:17.656Z,80.46
2022-11-24T04:44:44.022Z,80.02
2022-11-24T04:47:15.885Z,80.32
2022-11-24T04:49:42.335Z,79.97
2022-11-24T04:52:08.698Z,79.82
2022-11-24T04:54:35.271Z,80.54
2022-11-24T04:57:01.891Z,80.33
2022-11-24T04:59:28.803Z,79.97
2022-11-24T05:01:55.327Z,80.43
2022-11-24T05:04:22.357Z,80.36
2022-11-24T05:06:48.806Z,80.60
2022-11-24T05:09:17.070Z,80.16
2022-11-24T05:11:43.761Z,80.31
2022-11-24T05:14:10.111Z,80.04
2022-11-24T05:16:37.710Z,79.88
2022-11-24T05:19:04.293Z,80.34
2022-11-24T05:21:30.660Z,80.71
2022-11-24T05:23:57.139Z,79.86
2022-11-24T05:26:23.573Z,80.63
2022-11-24T05:28:50.002Z,80.06
2022-11-24T05:31:16.369Z,80.11
2022-11-24T05:33:43.217Z,80.11
2022-11-24T05:36:29.911Z,80.00
2022-11-24T05:38:56.338Z,80.00
2022-11-24T05:41:22.819Z,80.56
2022-11-24T05:43:49.181Z,80.27
2022-11-24T05:46:15.722Z,80.24
2022-11-24T05:48:42.203Z,80.42
2022-11-24T05:51:09.547Z,79.49
2022-11-24T05:53:36.313Z,80.20
2022-11-24T05:56:04.000Z,79.88
2022-11-24T05:58:30.462Z,80.27
2022-11-24T06:00:56.878Z,80.07
2022-11-24T06:03:23.736Z,80.01
2022-11-24T06:05:50.160Z,79.63
2022-11-24T06:08:16.554Z,79.54
2022-11-24T06:10:42.904Z,79.27
2022-11-24T06:13:09.345Z,79.40
2022-11-24T06:15:37.631Z,79.96
2022-11-24T06:18:04.094Z,80.07
2022-11-24T06:20:32.809Z,79.65
2022-11-24T06:23:00.687Z,80.27
2022-11-24T06:25:28.494Z,80.76
2022-11-24T06:27:55.106Z,80.64
2022-11-24T06:30:21.499Z,80.64
2022-11-24T06:32:49.933Z,80.87
2022-11-24T06:35:17.308Z,81.19
2022-11-24T06:37:43.864Z,80.99
2022-11-24T06:40:10.450Z,81.52
2022-11-24T06:42:37.589Z,81.51
2022-11-24T06:45:08.717Z,81.81
2022-11-24T06:47:35.884Z,81.58
2022-11-24T06:50:02.707Z,81.67
2022-11-24T06:52:29.113Z,81.23
2022-11-24T06:54:55.492Z,81.98
2022-11-24T06:57:21.932Z,82.05
2022-11-24T06:59:48.365Z,82.13
2022-11-24T07:02:14.908Z,81.67
2022-11-24T07:04:41.265Z,82.54
2022-11-24T07:07:07.654Z,81.93
2022-11-24T07:09:34.112Z,82.24
2022-11-24T07:12:02.147Z,82.30
2022-11-24T07:14:28.513Z,82.82
2022-11-24T07:16:54.995Z,82.13
2022-11-24T07:19:24.832Z,82.07
2022-11-24T07:21:51.722Z,82.08
2022-11-24T07:24:18.068Z,82.42
2022-11-24T07:26:44.536Z,82.56
2022-11-24T07:29:10.902Z,82.58
2022-11-24T07:31:37.425Z,82.77
2022-11-24T07:34:03.870Z,82.51
2022-11-24T07:36:30.339Z,82.58
2022-11-24T07:38:56.872Z,83.22
2022-11-24T07:41:23.457Z,83.37
2022-11-24T07:43:51.424Z,82.92
2022-11-24T07:46:19.413Z,82.74
2022-11-24T07:48:46.276Z,83.12
2022-11-24T07:51:12.896Z,82.99
2022-11-24T07:53:39.545Z,83.01
2022-11-24T07:56:06.693Z,83.16
2022-11-24T07:58:35.935Z,83.55
2022-11-24T08:01:16.372Z,83.01
2022-11-24T08:03:43.689Z,83.04
2022-11-24T08:06:31.790Z,82.78
2022-11-24T08:08:57.976Z,82.58
2022-11-24T08:11:25.210Z,82.48
2022-11-24T08:13:51.632Z,83.01
2022-11-24T08:16:19.805Z,82.99
2022-11-24T08:18:51.196Z,82.80
2022-11-24T08:21:17.842Z,83.33
2022-11-24T08:23:44.432Z,83.86
2022-11-24T08:26:15.908Z,83.33
2022-11-24T08:28:42.821Z,83.49
2022-11-24T08:31:18.671Z,83.32
2022-11-24T08:33:46.026Z,83.40
2022-11-24T08:36:15.173Z,83.68
2022-11-24T08:38:41.875Z,83.78
2022-11-24T08:41:14.967Z,83.39
2022-11-24T08:43:41.627Z,83.46
2022-11-24T08:46:11.173Z,83.78
2022-11-24T08:48:37.963Z,83.33
2022-11-24T08:51:13.471Z,83.00
2022-11-24T08:53:40.394Z,82.59
2022-11-24T08:56:08.379Z,82.93
2022-11-24T08:58:35.143Z,83.00
2022-11-24T09:01:19.698Z,83.07
2022-11-24T09:03:50.741Z,83.39
2022-11-24T09:06:23.724Z,83.50
2022-11-24T09:08:51.737Z,82.89
2022-11-24T09:11:18.388Z,82.87
2022-11-24T09:13:45.150Z,82.50
2022-11-24T09:16:14.414Z,82.50
2022-11-24T09:18:41.252Z,82.62
2022-11-24T09:21:08.945Z,82.14
2022-11-24T09:23:36.228Z,82.59
2022-11-24T09:26:14.370Z,82.82
2022-11-24T09:28:41.609Z,82.70
2022-11-24T09:31:11.459Z,81.96
2022-11-24T09:33:38.607Z,82.67
2022-11-24T09:36:06.091Z,82.21
2022-11-24T09:38:33.130Z,81.99
2022-11-24T09:41:14.794Z,81.55
2022-11-24T09:43:59.898Z,81.41
2022-11-24T09:46:54.163Z,81.27
2022-11-24T09:49:51.517Z,81.39
2022-11-24T09:52:43.948Z,81.07
2022-11-24T09:55:33.089Z,81.02
2022-11-24T09:58:21.000Z,81.31
2022-11-24T10:00:51.731Z,81.45
2022-11-24T10:03:43.443Z,81.61
2022-11-24T10:06:39.603Z,81.65
2022-11-24T10:09:42.874Z,81.42
2022-11-24T10:12:43.427Z,81.50
2022-11-24T10:15:45.434Z,81.33
2022-11-24T10:18:33.082Z,80.64
2022-11-24T10:20:59.368Z,81.14
2022-11-24T10:23:41.209Z,80.69
2022-11-24T10:26:31.977Z,80.94
2022-11-24T10:28:58.421Z,81.01
2022-11-24T10:31:42.457Z,80.60
2022-11-24T10:34:18.025Z,80.75
2022-11-24T10:37:06.143Z,80.67
2022-11-24T10:39:46.603Z,80.69
2022-11-24T10:42:18.582Z,81.29
2022-11-24T10:44:45.261Z,81.48
2022-11-24T10:47:22.752Z,81.05
2022-11-24T10:50:03.551Z,81.01
2022-11-24T10:52:36.677Z,80.44
2022-11-24T10:55:05.074Z,80.59
2022-11-24T10:57:32.967Z,80.69
2022-11-24T11:00:00.851Z,80.23
2022-11-24T11:02:39.234Z,80.08
2022-11-24T11:05:35.078Z,80.37
2022-11-24T11:08:17.490Z,80.16
2022-11-24T11:10:45.381Z,80.05
2022-11-24T11:13:27.549Z,79.77
2022-11-24T11:15:55.554Z,79.94
2022-11-24T11:18:25.857Z,79.61
2022-11-24T11:20:55.367Z,80.14
2022-11-24T11:23:31.246Z,80.08
2022-11-24T11:26:17.361Z,80.07
2022-11-24T11:35:12.629Z,79.60
2022-11-24T11:37:39.052Z,79.51
2022-11-24T11:40:15.948Z,78.91
2022-11-24T11:43:05.226Z,78.50
2022-11-24T11:45:35.787Z,78.38
2022-11-24T11:48:02.758Z,78.06
2022-11-24T11:51:15.048Z,78.18
2022-11-24T11:54:07.434Z,77.82
2022-11-24T11:56:40.275Z,77.92
2022-11-24T11:59:18.427Z,77.87
2022-11-24T12:02:16.084Z,77.66
2022-11-24T12:04:47.064Z,77.96
2022-11-24T12:07:47.143Z,77.63
2022-11-24T12:10:57.903Z,77.78
2022-11-24T12:13:33.069Z,77.04
2022-11-24T12:16:15.747Z,77.43
2022-11-24T12:18:57.761Z,77.08
2022-11-24T12:21:35.682Z,76.69
2022-11-24T12:24:17.971Z,77.14
2022-11-24T12:26:57.574Z,77.17
2022-11-24T12:29:53.371Z,77.08
2022-11-24T12:33:07.645Z,76.66
2022-11-24T12:35:46.515Z,76.98
2022-11-24T12:38:38.018Z,76.75
2022-11-24T12:41:40.981Z,76.34
2022-11-24T12:44:30.597Z,76.23
2022-11-24T12:47:10.011Z,76.07
2022-11-24T12:50:02.705Z,76.07
2022-11-24T12:52:35.629Z,75.98
2022-11-24T12:55:02.755Z,75.87
2022-11-24T12:57:44.700Z,75.73
2022-11-24T13:00:27.056Z,75.88
2022-11-24T13:03:11.681Z,75.81
2022-11-24T13:06:01.234Z,75.95
2022-11-24T13:08:29.643Z,75.57
2022-11-24T13:11:25.980Z,76.01
2022-11-24T13:14:28.654Z,76.09
2022-11-24T13:19:46.877Z,75.88
2022-11-24T13:22:24.182Z,76.30
2022-11-24T13:25:21.666Z,75.67
2022-11-24T13:27:52.965Z,75.84
2022-11-24T13:30:45.463Z,76.39
2022-11-24T13:33:16.568Z,76.37
2022-11-24T13:36:02.230Z,76.15
2022-11-24T13:38:43.716Z,76.15
2022-11-24T13:41:31.268Z,76.42
2022-11-24T13:44:16.075Z,76.43
2022-11-24T13:47:07.025Z,76.74
2022-11-24T13:49:46.372Z,76.86
2022-11-24T13:52:40.377Z,76.54
2022-11-24T13:55:12.756Z,76.44
2022-11-24T13:57:48.000Z,76.54
2022-11-24T14:00:35.154Z,76.88
2022-11-24T14:03:05.356Z,76.28
2022-11-24T14:05:45.935Z,76.59
2022-11-24T14:08:21.770Z,76.48
2022-11-24T14:10:48.553Z,76.37
2022-11-24T14:13:29.673Z,76.46
2022-11-24T14:16:00.543Z,76.61
2022-11-24T14:18:29.056Z,76.47
2022-11-24T14:20:56.745Z,76.58
2022-11-24T14:23:23.328Z,76.72
2022-11-24T14:25:51.280Z,76.90
2022-11-24T14:28:29.163Z,76.75
2022-11-24T14:31:09.557Z,77.03
2022-11-24T14:33:36.673Z,77.09
2022-11-24T14:36:03.311Z,76.95
2022-11-24T14:38:29.692Z,76.73
2022-11-24T14:40:56.416Z,76.52
2022-11-24T14:43:25.515Z,76.94
2022-11-24T14:46:08.966Z,77.21
2022-11-24T14:48:38.592Z,76.91
2022-11-24T14:51:19.778Z,77.17
2022-11-24T14:53:50.524Z,76.90
2022-11-24T14:56:27.480Z,76.75
2022-11-24T14:58:55.571Z,77.08
2022-11-24T15:01:27.868Z,77.04
2022-11-24T15:04:18.178Z,77.04
2022-11-24T15:07:18.943Z,77.20
2022-11-24T15:09:52.830Z,77.15
2022-11-24T15:12:28.430Z,77.24
2022-11-24T15:14:58.575Z,77.43
2022-11-24T15:17:28.271Z,77.43
2022-11-24T15:20:02.751Z,77.69
2022-11-24T15:22:29.108Z,77.44
2022-11-24T15:24:55.510Z,77.65
2022-11-24T15:27:22.111Z,77.80
2022-11-24T15:29:48.491Z,77.90
2022-11-24T15:32:15.563Z,78.25
2022-11-24T15:34:44.013Z,77.74
2022-11-24T15:37:10.444Z,77.98
2022-11-24T15:39:36.859Z,77.71
2022-11-24T15:42:03.416Z,77.98
2022-11-24T15:44:30.084Z,77.84
2022-11-24T15:46:56.538Z,78.55
2022-11-24T15:49:23.084Z,77.98
2022-11-24T15:51:49.435Z,78.42
2022-11-24T15:54:17.837Z,78.23
2022-11-24T15:56:44.572Z,77.96
2022-11-24T15:59:20.581Z,78.07
2022-11-24T16:01:49.583Z,77.67
2022-11-24T16:04:16.317Z,78.02
2022-11-24T16:06:42.766Z,77.73
2022-11-24T16:09:14.355Z,77.90
2022-11-24T16:11:40.941Z,77.98
2022-11-24T16:14:07.411Z,77.50
2022-11-24T16:16:33.888Z,77.38
2022-11-24T16:19:00.400Z,77.20
2022-11-24T16:21:26.780Z,77.93
2022-11-24T16:23:53.751Z,77.54
2022-11-24T16:26:20.260Z,77.53
2022-11-24T16:28:46.660Z,77.52
2022-11-24T16:31:15.689Z,77.22
2022-11-24T16:33:44.481Z,77.33
2022-11-24T16:36:10.993Z,77.46
2022-11-24T16:38:37.374Z,77.29
2022-11-24T16:41:03.897Z,77.78
2022-11-24T16:43:30.462Z,77.62
2022-11-24T16:46:16.025Z,77.26
2022-11-24T16:48:42.955Z,77.52
2022-11-24T16:51:10.384Z,77.21
2022-11-24T16:53:37.170Z,77.48
2022-11-24T16:56:04.244Z,77.47
2022-11-24T16:58:30.674Z,77.51
2022-11-24T17:01:12.375Z,77.34
2022-11-24T17:03:39.093Z,77.01
2022-11-24T17:06:11.317Z,77.04
2022-11-24T17:08:39.548Z,76.82
2022-11-24T17:11:11.934Z,76.94
2022-11-24T17:13:39.141Z,76.76
2022-11-24T17:16:11.552Z,76.97
2022-11-24T17:18:38.873Z,76.85
2022-11-24T17:21:09.733Z,76.94
2022-11-24T17:23:36.966Z,76.96
2022-11-24T17:26:14.722Z,77.15
2022-11-24T17:28:42.145Z,77.19
2022-11-24T17:31:24.107Z,77.00
2022-11-24T17:33:52.887Z,77.24
2022-11-24T17:36:19.604Z,77.00
2022-11-24T17:38:46.068Z,77.36
2022-11-24T17:41:12.423Z,77.29
2022-11-24T17:43:38.776Z,76.80
2022-11-24T17:46:05.350Z,76.47
2022-11-24T17:48:32.362Z,76.46
2022-11-24T17:51:03.406Z,76.59
2022-11-24T17:53:30.492Z,76.93
2022-11-24T17:56:00.520Z,77.29
2022-11-24T17:58:28.278Z,76.59
2022-11-24T18:00:54.931Z,76.31
2022-11-24T18:03:21.426Z,76.37
2022-11-24T18:05:47.943Z,76.26
2022-11-24T18:08:14.509Z,76.48
2022-11-24T18:10:40.894Z,76.43
2022-11-24T18:13:07.300Z,76.52
2022-11-24T18:15:34.864Z,76.26
2022-11-24T18:18:02.007Z,76.24
2022-11-24T18:20:28.988Z,76.20
2022-11-24T18:23:05.381Z,76.02
2022-11-24T18:25:33.162Z,75.90
2022-11-24T18:27:59.584Z,76.03
2022-11-24T18:30:25.928Z,76.28
2022-11-24T18:32:52.339Z,76.20
2022-11-24T18:35:18.767Z,75.90
2022-11-24T18:37:45.244Z,76.26
2022-11-24T18:40:11.891Z,75.97
2022-11-24T18:42:38.342Z,76.30
2022-11-24T18:45:05.696Z,75.88
2022-11-24T18:47:33.401Z,76.22
2022-11-24T18:50:00.241Z,75.83
2022-11-24T18:52:26.721Z,75.76
2022-11-24T18:54:53.139Z,75.99
2022-11-24T18:57:19.549Z,75.78
2022-11-24T18:59:45.931Z,76.08
2022-11-24T19:02:12.431Z,76.44
2022-11-24T19:04:40.232Z,75.60
2022-11-24T19:07:06.683Z,75.70
2022-11-24T19:09:33.090Z,75.83
2022-11-24T19:12:00.066Z,75.98
2022-11-24T19:14:26.585Z,76.27
2022-11-24T19:16:53.040Z,75.79
2022-11-24T19:19:19.527Z,76.04
2022-11-24T19:21:46.108Z,76.19
2022-11-24T19:24:15.383Z,76.32
2022-11-24T19:26:41.915Z,76.00
2022-11-24T19:29:08.672Z,75.93
2022-11-24T19:31:36.036Z,75.44
2022-11-24T19:34:03.404Z,75.54
2022-11-24T19:36:30.493Z,75.78
2022-11-24T19:38:57.975Z,75.56
2022-11-24T19:41:27.092Z,75.78
2022-11-24T19:43:54.594Z,75.85
2022-11-24T19:46:22.639Z,75.65
2022-11-24T19:48:53.916Z,75.77
2022-11-24T19:51:22.993Z,75.84
2022-11-24T19:53:49.713Z,75.94
2022-11-24T19:56:21.396Z,75.32
2022-11-24T19:58:48.497Z,75.10
2022-11-24T20:01:24.469Z,74.95
2022-11-24T20:03:58.746Z,75.29
2022-11-24T20:06:27.004Z,75.18
2022-11-24T20:08:53.445Z,75.09
2022-11-24T20:11:21.203Z,74.86
2022-11-24T20:13:49.653Z,75.13
2022-11-24T20:16:18.652Z,74.77
2022-11-24T20:18:47.546Z,74.99
2022-11-24T20:21:17.935Z,74.32
2022-11-24T20:23:46.088Z,74.01
2022-11-24T20:26:15.220Z,74.99
2022-11-24T20:28:42.461Z,74.44
2022-11-24T20:31:12.350Z,73.98
2022-11-24T20:33:39.304Z,74.50
2022-11-24T20:36:11.607Z,74.48
2022-11-24T20:38:39.418Z,74.56
2022-11-24T20:41:09.606Z,74.71
2022-11-24T20:43:37.768Z,73.86
2022-11-24T20:46:09.308Z,73.84
2022-11-24T20:48:36.887Z,73.70
2022-11-24T20:51:11.611Z,74.17
2022-11-24T20:53:38.955Z,74.54
2022-11-24T20:56:27.239Z,74.35
2022-11-24T20:58:53.702Z,74.30
2022-11-24T21:01:25.295Z,74.53
2022-11-24T21:03:54.443Z,74.69
2022-11-24T21:06:21.597Z,75.58
2022-11-24T21:08:47.984Z,75.13
2022-11-24T21:11:15.294Z,74.99
2022-11-24T21:13:44.220Z,75.18
2022-11-24T21:16:15.224Z,75.71
2022-11-24T21:18:42.848Z,75.16
2022-11-24T21:21:09.290Z,75.32
2022-11-24T21:23:35.660Z,75.36
2022-11-24T21:26:05.708Z,74.89
2022-11-24T21:28:33.584Z,75.16
2022-11-24T21:31:08.730Z,75.70
2022-11-24T21:33:44.669Z,75.27
2022-11-24T21:36:12.502Z,75.55
2022-11-24T21:38:38.893Z,75.68
2022-11-24T21:41:07.279Z,75.84
2022-11-24T21:43:34.408Z,75.12
2022-11-24T21:46:08.926Z,75.26
2022-11-24T21:48:36.977Z,76.01
2022-11-24T21:51:05.921Z,75.79
2022-11-24T21:53:36.968Z,75.74
2022-11-24T21:56:12.545Z,75.96
2022-11-24T21:58:44.859Z,76.46
2022-11-24T22:01:11.580Z,76.45
2022-11-24T22:03:38.132Z,76.48
2022-11-24T22:06:04.744Z,76.20
2022-11-24T22:08:31.654Z,76.11
2022-11-24T22:11:06.024Z,76.22
2022-11-24T22:13:33.120Z,76.75
2022-11-24T22:16:20.819Z,76.92
2022-11-24T22:18:47.805Z,76.87
2022-11-24T22:21:16.561Z,76.74
2022-11-24T22:23:43.404Z,77.00
2022-11-24T22:26:17.128Z,76.88
2022-11-24T22:28:44.034Z,77.34
2022-11-24T22:31:15.841Z,77.12
2022-11-24T22:33:43.761Z,76.98
2022-11-24T22:36:14.071Z,77.35
2022-11-24T22:38:41.571Z,77.49
2022-11-24T22:41:10.742Z,77.19
2022-11-24T22:43:38.549Z,77.18
2022-11-24T22:46:06.611Z,77.32
2022-11-24T22:48:33.602Z,77.57
2022-11-24T22:51:18.067Z,77.70
2022-11-24T22:53:49.004Z,77.32
2022-11-24T22:56:16.640Z,77.72
2022-11-24T22:58:43.280Z,77.71
2022-11-24T23:01:15.077Z,78.40
2022-11-24T23:03:42.205Z,78.39
2022-11-24T23:06:13.742Z,78.13
2022-11-24T23:08:40.644Z,78.19
2022-11-24T23:11:09.818Z,78.49
2022-11-24T23:13:36.603Z,77.83
2022-11-24T23:16:05.238Z,78.01
2022-11-24T23:18:32.197Z,78.65
2022-11-24T23:21:19.300Z,78.52
2022-11-24T23:23:47.152Z,78.88
2022-11-24T23:26:16.756Z,79.19
2022-11-24T23:28:43.270Z,78.86
2022-11-24T23:31:16.148Z,79.06
2022-11-24T23:33:42.891Z,79.36
2022-11-24T23:36:12.523Z,79.42
2022-11-24T23:38:39.928Z,80.19
2022-11-24T23:41:10.713Z,80.01
2022-11-24T23:43:39.080Z,80.19
2022-11-24T23:46:17.561Z,81.27
2022-11-24T23:48:44.501Z,80.98
2022-11-24T23:51:19.110Z,80.99
2022-11-24T23:53:46.140Z,81.91
2022-11-24T23:56:20.880Z,81.97
2022-11-24T23:58:47.344Z,82.51
